<?xml version="1.0" encoding="UTF-8" standalone="no" ?>
<gpx xmlns="http://www.topografix.com/GPX/1/1" xmlns:xsi="http://www.w3.org/2001/XMLSchema-instance" xsi:schemaLocation="http://www.topografix.com/GPX/1/1 http://www.topografix.com/GPX/1/1/gpx.xsd" version="1.1" creator="VisuGPX - https://www.visugpx.com">
  <metadata>
    <name>Saugues Eglise Saint Roch</name>
  </metadata>
  <trk>
    <name><![CDATA[trace]]></name>
    <extensions>
      <line xmlns="http://www.topografix.com/GPX/gpx_style/0/2">
        <color>0000FF</color>
        <width>4</width>
      </line>
    </extensions>
    <trkseg>
      <trkpt lat="44.95967" lon="3.54704">
        <ele>966.7</ele>
        <time>2019-03-30T11:56:23Z</time>
      </trkpt>
      <trkpt lat="44.95973" lon="3.5466">
        <ele>965.7</ele>
      </trkpt>
      <trkpt lat="44.95958" lon="3.54592">
        <ele>967.197</ele>
        <time>2019-03-30T11:56:43Z</time>
      </trkpt>
      <trkpt lat="44.95924" lon="3.54594">
        <ele>967.349</ele>
        <time>2019-03-30T11:57:03Z</time>
      </trkpt>
      <trkpt lat="44.95881" lon="3.54438">
        <ele>953.377</ele>
        <time>2016-09-13T09:30:48Z</time>
      </trkpt>
      <trkpt lat="44.95765" lon="3.54238">
        <ele>941.541</ele>
        <time>2016-09-13T09:31:08Z</time>
      </trkpt>
      <trkpt lat="44.95643" lon="3.54168">
        <ele>935.081</ele>
        <time>2016-09-13T09:31:28Z</time>
      </trkpt>
      <trkpt lat="44.95605" lon="3.54116">
        <ele>929.409</ele>
        <time>2016-09-13T09:31:48Z</time>
      </trkpt>
      <trkpt lat="44.95595" lon="3.54021">
        <ele>928.008</ele>
        <time>2021-01-02T14:06:20Z</time>
      </trkpt>
      <trkpt lat="44.95558" lon="3.53867">
        <ele>927.94</ele>
        <time>2016-09-13T09:32:28Z</time>
      </trkpt>
      <trkpt lat="44.95497" lon="3.53863">
        <ele>928.987</ele>
        <time>2019-03-30T11:59:23Z</time>
      </trkpt>
      <trkpt lat="44.95444" lon="3.53833">
        <ele>928.076</ele>
        <time>2019-03-30T11:59:43Z</time>
      </trkpt>
      <trkpt lat="44.95373" lon="3.53757">
        <ele>932.092</ele>
        <time>2019-03-30T12:00:03Z</time>
      </trkpt>
      <trkpt lat="44.95262" lon="3.53702">
        <ele>932.089</ele>
        <time>2016-09-13T09:33:28Z</time>
      </trkpt>
      <trkpt lat="44.95232" lon="3.53592">
        <ele>934.218</ele>
        <time>2016-09-13T09:33:48Z</time>
      </trkpt>
      <trkpt lat="44.95101" lon="3.53337">
        <ele>937.04</ele>
        <time>2016-09-13T09:34:08Z</time>
      </trkpt>
      <trkpt lat="44.94996" lon="3.53262">
        <ele>936.828</ele>
        <time>2016-09-13T09:34:28Z</time>
      </trkpt>
      <trkpt lat="44.94922" lon="3.53253">
        <ele>939.122</ele>
        <time>2016-09-13T09:34:48Z</time>
      </trkpt>
      <trkpt lat="44.94793" lon="3.53187">
        <ele>952.562</ele>
        <time>2016-09-13T09:35:08Z</time>
      </trkpt>
      <trkpt lat="44.94592" lon="3.53028">
        <ele>967.008</ele>
        <time>2016-09-13T09:35:28Z</time>
      </trkpt>
      <trkpt lat="44.94495" lon="3.52992">
        <ele>973.308</ele>
        <time>2016-09-13T09:35:48Z</time>
      </trkpt>
      <trkpt lat="44.94454" lon="3.52902">
        <ele>981.248</ele>
        <time>2016-09-13T09:36:08Z</time>
      </trkpt>
      <trkpt lat="44.94381" lon="3.5282">
        <ele>983.395</ele>
        <time>2016-09-13T09:36:28Z</time>
      </trkpt>
      <trkpt lat="44.94329" lon="3.52788">
        <ele>988.364</ele>
        <time>2016-09-13T09:36:48Z</time>
      </trkpt>
      <trkpt lat="44.94154" lon="3.52864">
        <ele>993.01</ele>
        <time>2019-03-30T12:04:03Z</time>
      </trkpt>
      <trkpt lat="44.94086" lon="3.52846">
        <ele>995.227</ele>
        <time>2019-03-30T12:04:23Z</time>
      </trkpt>
      <trkpt lat="44.94004" lon="3.5289">
        <ele>996.366</ele>
        <time>2019-03-30T12:04:43Z</time>
      </trkpt>
      <trkpt lat="44.93987" lon="3.52964">
        <ele>1000.218</ele>
        <time>2019-03-30T12:05:03Z</time>
      </trkpt>
      <trkpt lat="44.93933" lon="3.52992">
        <ele>1008.846</ele>
        <time>2019-03-30T12:05:23Z</time>
      </trkpt>
      <trkpt lat="44.93857" lon="3.52972">
        <ele>1015.294</ele>
        <time>2019-03-30T12:05:43Z</time>
      </trkpt>
      <trkpt lat="44.93784" lon="3.52858">
        <ele>1016.757</ele>
        <time>2019-03-30T12:06:03Z</time>
      </trkpt>
      <trkpt lat="44.93689" lon="3.52863">
        <ele>1020.922</ele>
        <time>2016-09-13T09:39:28Z</time>
      </trkpt>
      <trkpt lat="44.93576" lon="3.52655">
        <ele>1023.108</ele>
        <time>2016-09-13T09:39:48Z</time>
      </trkpt>
      <trkpt lat="44.93543" lon="3.52532">
        <ele>1023.315</ele>
        <time>2016-09-13T09:40:08Z</time>
      </trkpt>
      <trkpt lat="44.93485" lon="3.52438">
        <ele>1023.122</ele>
        <time>2016-09-13T09:40:28Z</time>
      </trkpt>
      <trkpt lat="44.93277" lon="3.52453">
        <ele>1029.451</ele>
        <time>2016-09-13T09:40:48Z</time>
      </trkpt>
      <trkpt lat="44.93123" lon="3.52408">
        <ele>1040.677</ele>
        <time>2016-09-13T09:41:08Z</time>
      </trkpt>
      <trkpt lat="44.9309" lon="3.52354">
        <ele>1044.524</ele>
        <time>2016-09-13T09:41:28Z</time>
      </trkpt>
      <trkpt lat="44.93031" lon="3.52316">
        <ele>1044.733</ele>
        <time>2016-09-13T09:41:48Z</time>
      </trkpt>
      <trkpt lat="44.92965" lon="3.52305">
        <ele>1039.245</ele>
        <time>2016-09-13T09:42:08Z</time>
      </trkpt>
      <trkpt lat="44.92876" lon="3.52245">
        <ele>1044.793</ele>
        <time>2016-09-13T09:42:28Z</time>
      </trkpt>
      <trkpt lat="44.92826" lon="3.52223">
        <ele>1049.256</ele>
        <time>2016-09-13T09:42:48Z</time>
      </trkpt>
      <trkpt lat="44.92782" lon="3.52159">
        <ele>1053.959</ele>
        <time>2021-01-02T14:17:40Z</time>
      </trkpt>
      <trkpt lat="44.92747" lon="3.52114">
        <ele>1059.314</ele>
        <time>2016-09-13T09:43:28Z</time>
      </trkpt>
      <trkpt lat="44.9264" lon="3.52045">
        <ele>1067.808</ele>
        <time>2016-09-13T09:43:48Z</time>
      </trkpt>
      <trkpt lat="44.92583" lon="3.51949">
        <ele>1072.731</ele>
        <time>2016-09-13T09:44:08Z</time>
      </trkpt>
      <trkpt lat="44.92505" lon="3.51874">
        <ele>1075.298</ele>
        <time>2016-09-13T09:44:28Z</time>
      </trkpt>
      <trkpt lat="44.92414" lon="3.51726">
        <ele>1081.187</ele>
        <time>2016-09-13T09:44:48Z</time>
      </trkpt>
      <trkpt lat="44.9239" lon="3.51668">
        <ele>1078.073</ele>
        <time>2016-09-13T09:45:08Z</time>
      </trkpt>
      <trkpt lat="44.92321" lon="3.51614">
        <ele>1074.46</ele>
        <time>2016-09-13T09:45:28Z</time>
      </trkpt>
      <trkpt lat="44.92215" lon="3.51357">
        <ele>1063.479</ele>
        <time>2016-09-13T09:45:48Z</time>
      </trkpt>
      <trkpt lat="44.92131" lon="3.50994">
        <ele>1071.171</ele>
        <time>2016-09-13T09:46:08Z</time>
      </trkpt>
      <trkpt lat="44.9206" lon="3.50852">
        <ele>1066.249</ele>
        <time>2016-09-13T09:46:28Z</time>
      </trkpt>
      <trkpt lat="44.9199" lon="3.50653">
        <ele>1053.263</ele>
        <time>2016-09-13T09:46:48Z</time>
      </trkpt>
      <trkpt lat="44.91926" lon="3.50588">
        <ele>1047.744</ele>
        <time>2016-09-13T09:47:08Z</time>
      </trkpt>
      <trkpt lat="44.91894" lon="3.50485">
        <ele>1043.718</ele>
        <time>2016-09-13T09:47:28Z</time>
      </trkpt>
      <trkpt lat="44.9185" lon="3.50481">
        <ele>1048.108</ele>
        <time>2016-09-13T09:47:48Z</time>
      </trkpt>
      <trkpt lat="44.91815" lon="3.505">
        <ele>1052.382</ele>
        <time>2021-01-02T14:22:40Z</time>
      </trkpt>
      <trkpt lat="44.91738" lon="3.50464">
        <ele>1068.239</ele>
        <time>2016-09-13T09:48:28Z</time>
      </trkpt>
      <trkpt lat="44.91705" lon="3.50418">
        <ele>1066.758</ele>
        <time>2021-01-02T14:23:20Z</time>
      </trkpt>
      <trkpt lat="44.91659" lon="3.50408">
        <ele>1068.044</ele>
        <time>2021-01-02T14:23:40Z</time>
      </trkpt>
      <trkpt lat="44.91602" lon="3.50421">
        <ele>1070.161</ele>
        <time>2021-01-02T14:24:00Z</time>
      </trkpt>
      <trkpt lat="44.91516" lon="3.50474">
        <ele>1076.52</ele>
        <time>2019-03-30T12:16:43Z</time>
      </trkpt>
      <trkpt lat="44.91317" lon="3.5038">
        <ele>1089.742</ele>
        <time>2016-09-13T09:50:08Z</time>
      </trkpt>
      <trkpt lat="44.9111" lon="3.50423">
        <ele>1095.91</ele>
        <time>2016-09-13T09:50:28Z</time>
      </trkpt>
      <trkpt lat="44.9108" lon="3.50492">
        <ele>1090.077</ele>
        <time>2016-09-13T09:50:48Z</time>
      </trkpt>
      <trkpt lat="44.91048" lon="3.50494">
        <ele>1093.061</ele>
        <time>2016-09-13T09:51:08Z</time>
      </trkpt>
      <trkpt lat="44.91009" lon="3.50532">
        <ele>1094.027</ele>
        <time>2021-01-02T14:26:00Z</time>
      </trkpt>
      <trkpt lat="44.9097" lon="3.50511">
        <ele>1096.308</ele>
        <time>2021-01-02T14:26:20Z</time>
      </trkpt>
      <trkpt lat="44.90966" lon="3.50408">
        <ele>1104.363</ele>
        <time>2016-09-13T09:52:08Z</time>
      </trkpt>
      <trkpt lat="44.90959" lon="3.50386">
        <ele>1105.26</ele>
        <time>2021-01-02T14:27:00Z</time>
      </trkpt>
      <trkpt lat="44.90886" lon="3.50362">
        <ele>1104.799</ele>
        <time>2021-01-02T14:27:20Z</time>
      </trkpt>
      <trkpt lat="44.90837" lon="3.50263">
        <ele>1102.835</ele>
        <time>2021-01-02T14:27:40Z</time>
      </trkpt>
      <trkpt lat="44.90767" lon="3.50195">
        <ele>1098.222</ele>
        <time>2021-01-02T14:28:00Z</time>
      </trkpt>
      <trkpt lat="44.90629" lon="3.50196">
        <ele>1098.161</ele>
        <time>2019-03-30T12:20:43Z</time>
      </trkpt>
      <trkpt lat="44.90542" lon="3.50206">
        <ele>1103.113</ele>
        <time>2019-03-30T12:21:03Z</time>
      </trkpt>
      <trkpt lat="44.90483" lon="3.50187">
        <ele>1105.081</ele>
        <time>2016-09-13T09:54:28Z</time>
      </trkpt>
      <trkpt lat="44.90408" lon="3.50196">
        <ele>1110.873</ele>
        <time>2019-03-30T12:21:43Z</time>
      </trkpt>
      <trkpt lat="44.90318" lon="3.50121">
        <ele>1110.185</ele>
        <time>2019-03-30T12:22:03Z</time>
      </trkpt>
      <trkpt lat="44.90182" lon="3.50041">
        <ele>1117.813</ele>
        <time>2019-03-30T12:22:23Z</time>
      </trkpt>
      <trkpt lat="44.90097" lon="3.50035">
        <ele>1118.108</ele>
        <time>2019-03-30T12:22:43Z</time>
      </trkpt>
      <trkpt lat="44.89944" lon="3.50065">
        <ele>1130.393</ele>
        <time>2019-03-30T12:23:03Z</time>
      </trkpt>
      <trkpt lat="44.89863" lon="3.50099">
        <ele>1127.39</ele>
        <time>2019-03-30T12:23:23Z</time>
      </trkpt>
      <trkpt lat="44.89778" lon="3.50051">
        <ele>1128.229</ele>
        <time>2019-03-30T12:23:43Z</time>
      </trkpt>
      <trkpt lat="44.89592" lon="3.50003">
        <ele>1150.755</ele>
        <time>2019-03-30T12:24:03Z</time>
      </trkpt>
      <trkpt lat="44.8947" lon="3.50024">
        <ele>1153.362</ele>
        <time>2016-09-13T09:56:48Z</time>
      </trkpt>
      <trkpt lat="44.89334" lon="3.49959">
        <ele>1146.021</ele>
        <time>2019-03-30T12:24:43Z</time>
      </trkpt>
      <trkpt lat="44.89266" lon="3.49873">
        <ele>1143.073</ele>
        <time>2019-03-30T12:25:03Z</time>
      </trkpt>
      <trkpt lat="44.89123" lon="3.49633">
        <ele>1144.141</ele>
        <time>2019-03-30T12:25:23Z</time>
      </trkpt>
      <trkpt lat="44.89066" lon="3.49621">
        <ele>1138.964</ele>
        <time>2019-03-30T12:25:43Z</time>
      </trkpt>
      <trkpt lat="44.89013" lon="3.49583">
        <ele>1136.006</ele>
        <time>2019-03-30T12:26:03Z</time>
      </trkpt>
      <trkpt lat="44.88988" lon="3.49518">
        <ele>1139.316</ele>
        <time>2016-09-13T09:58:48Z</time>
      </trkpt>
      <trkpt lat="44.88944" lon="3.49492">
        <ele>1138.608</ele>
        <time>2016-09-13T09:59:08Z</time>
      </trkpt>
      <trkpt lat="44.88908" lon="3.49494">
        <ele>1136.332</ele>
        <time>2016-09-13T09:59:28Z</time>
      </trkpt>
      <trkpt lat="44.8882" lon="3.49432">
        <ele>1142.629</ele>
        <time>2016-09-13T09:59:48Z</time>
      </trkpt>
      <trkpt lat="44.88745" lon="3.49573">
        <ele>1145.348</ele>
        <time>2019-03-30T12:27:43Z</time>
      </trkpt>
      <trkpt lat="44.88643" lon="3.49668">
        <ele>1155.544</ele>
        <time>2016-09-13T10:00:08Z</time>
      </trkpt>
      <trkpt lat="44.8856" lon="3.49687">
        <ele>1154.041</ele>
        <time>2019-03-30T12:28:23Z</time>
      </trkpt>
      <trkpt lat="44.88446" lon="3.49667">
        <ele>1149.28</ele>
        <time>2019-03-30T12:28:43Z</time>
      </trkpt>
      <trkpt lat="44.88399" lon="3.49687">
        <ele>1151.062</ele>
        <time>2019-03-30T12:29:03Z</time>
      </trkpt>
      <trkpt lat="44.88321" lon="3.49845">
        <ele>1147.73</ele>
        <time>2019-03-30T12:29:23Z</time>
      </trkpt>
      <trkpt lat="44.88268" lon="3.4989">
        <ele>1143.952</ele>
        <time>2021-01-02T14:37:20Z</time>
      </trkpt>
      <trkpt lat="44.8821" lon="3.49907">
        <ele>1138.553</ele>
        <time>2021-01-02T14:37:40Z</time>
      </trkpt>
      <trkpt lat="44.88191" lon="3.49895">
        <ele>1137.108</ele>
        <time>2021-01-02T14:38:00Z</time>
      </trkpt>
      <trkpt lat="44.88148" lon="3.49904">
        <ele>1133.108</ele>
        <time>2021-01-02T14:38:20Z</time>
      </trkpt>
      <trkpt lat="44.88097" lon="3.49949">
        <ele>1131.111</ele>
        <time>2021-01-02T14:38:40Z</time>
      </trkpt>
      <trkpt lat="44.88086" lon="3.4993">
        <ele>1129.318</ele>
        <time>2021-01-02T14:39:00Z</time>
      </trkpt>
      <trkpt lat="44.88038" lon="3.49936">
        <ele>1121.617</ele>
        <time>2021-01-02T14:39:20Z</time>
      </trkpt>
      <trkpt lat="44.88021" lon="3.49947">
        <ele>1118.833</ele>
        <time>2021-01-02T14:39:40Z</time>
      </trkpt>
      <trkpt lat="44.88017" lon="3.50007">
        <ele>1116.01</ele>
        <time>2016-09-13T10:03:08Z</time>
      </trkpt>
      <trkpt lat="44.88006" lon="3.50009">
        <ele>1112.429</ele>
        <time>2021-01-02T14:40:20Z</time>
      </trkpt>
      <trkpt lat="44.87986" lon="3.49996">
        <ele>1108.991</ele>
        <time>2021-01-02T14:40:40Z</time>
      </trkpt>
      <trkpt lat="44.87953" lon="3.50019">
        <ele>1098.499</ele>
        <time>2021-01-02T14:41:00Z</time>
      </trkpt>
      <trkpt lat="44.87927" lon="3.50016">
        <ele>1094.981</ele>
        <time>2021-01-02T14:41:20Z</time>
      </trkpt>
      <trkpt lat="44.8789" lon="3.50021">
        <ele>1095.261</ele>
        <time>2021-01-02T14:41:40Z</time>
      </trkpt>
      <trkpt lat="44.87858" lon="3.50007">
        <ele>1095.717</ele>
        <time>2021-01-02T14:42:00Z</time>
      </trkpt>
      <trkpt lat="44.87832" lon="3.50003">
        <ele>1095.108</ele>
        <time>2019-03-30T12:32:03Z</time>
      </trkpt>
      <trkpt lat="44.87789" lon="3.50131">
        <ele>1102.824</ele>
        <time>2019-03-30T12:32:23Z</time>
      </trkpt>
      <trkpt lat="44.87778" lon="3.5013">
        <ele>1105.321</ele>
        <time>2021-01-02T14:43:00Z</time>
      </trkpt>
      <trkpt lat="44.87765" lon="3.50118">
        <ele>1108.66</ele>
        <time>2021-01-02T14:43:20Z</time>
      </trkpt>
      <trkpt lat="44.87736" lon="3.50114">
        <ele>1114.096</ele>
        <time>2016-09-13T10:05:08Z</time>
      </trkpt>
      <trkpt lat="44.87699" lon="3.50155">
        <ele>1116.373</ele>
        <time>2016-09-13T10:05:28Z</time>
      </trkpt>
      <trkpt lat="44.87656" lon="3.50185">
        <ele>1118.672</ele>
        <time>2021-01-02T14:44:20Z</time>
      </trkpt>
      <trkpt lat="44.87605" lon="3.50199">
        <ele>1124.494</ele>
        <time>2021-01-02T14:44:40Z</time>
      </trkpt>
      <trkpt lat="44.87557" lon="3.50247">
        <ele>1135.622</ele>
        <time>2021-01-02T14:45:00Z</time>
      </trkpt>
      <trkpt lat="44.87509" lon="3.50274">
        <ele>1142.253</ele>
        <time>2021-01-02T14:45:20Z</time>
      </trkpt>
      <trkpt lat="44.8748" lon="3.50278">
        <ele>1146.904</ele>
        <time>2021-01-02T14:45:40Z</time>
      </trkpt>
      <trkpt lat="44.87442" lon="3.50301">
        <ele>1151.814</ele>
        <time>2016-09-13T10:06:28Z</time>
      </trkpt>
      <trkpt lat="44.87474" lon="3.50224">
        <ele>1145.808</ele>
        <time>2016-09-13T10:06:48Z</time>
      </trkpt>
      <trkpt lat="44.87454" lon="3.5002">
        <ele>1139.921</ele>
        <time>2016-09-13T10:07:08Z</time>
      </trkpt>
      <trkpt lat="44.8736" lon="3.49754">
        <ele>1124.288</ele>
        <time>2016-09-13T10:07:28Z</time>
      </trkpt>
      <trkpt lat="44.87298" lon="3.49657">
        <ele>1116.567</ele>
        <time>2016-09-13T10:07:48Z</time>
      </trkpt>
      <trkpt lat="44.87226" lon="3.49621">
        <ele>1112.443</ele>
        <time>2016-09-13T10:08:08Z</time>
      </trkpt>
      <trkpt lat="44.87185" lon="3.49516">
        <ele>1105.11</ele>
        <time>2016-09-13T10:08:28Z</time>
      </trkpt>
      <trkpt lat="44.8705" lon="3.49578">
        <ele>1107.249</ele>
        <time>2016-09-13T10:08:48Z</time>
      </trkpt>
      <trkpt lat="44.86977" lon="3.49567">
        <ele>1110.951</ele>
        <time>2016-09-13T10:09:08Z</time>
      </trkpt>
      <trkpt lat="44.86892" lon="3.49601">
        <ele>1118.569</ele>
        <time>2016-09-13T10:09:28Z</time>
      </trkpt>
      <trkpt lat="44.86843" lon="3.49603">
        <ele>1117.857</ele>
        <time>2016-09-13T10:09:48Z</time>
      </trkpt>
      <trkpt lat="44.868" lon="3.49625">
        <ele>1118.8</ele>
        <time>2016-09-13T10:10:08Z</time>
      </trkpt>
      <trkpt lat="44.86702" lon="3.49595">
        <ele>1121.82</ele>
        <time>2016-09-13T10:10:28Z</time>
      </trkpt>
      <trkpt lat="44.86569" lon="3.49582">
        <ele>1131.008</ele>
        <time>2016-09-13T10:10:48Z</time>
      </trkpt>
      <trkpt lat="44.86514" lon="3.49531">
        <ele>1133.361</ele>
        <time>2019-03-30T12:39:03Z</time>
      </trkpt>
      <trkpt lat="44.86466" lon="3.49516">
        <ele>1134.038</ele>
        <time>2016-09-13T10:11:08Z</time>
      </trkpt>
      <trkpt lat="44.86388" lon="3.49533">
        <ele>1137.377</ele>
        <time>2016-09-13T10:11:28Z</time>
      </trkpt>
      <trkpt lat="44.86212" lon="3.49494">
        <ele>1128.473</ele>
        <time>2016-09-13T10:11:48Z</time>
      </trkpt>
      <trkpt lat="44.86168" lon="3.4947">
        <ele>1129.85</ele>
        <time>2016-09-13T10:12:08Z</time>
      </trkpt>
      <trkpt lat="44.86137" lon="3.49481">
        <ele>1133.969</ele>
        <time>2016-09-13T10:12:28Z</time>
      </trkpt>
      <trkpt lat="44.86007" lon="3.49419">
        <ele>1145.561</ele>
        <time>2016-09-13T10:12:48Z</time>
      </trkpt>
      <trkpt lat="44.85943" lon="3.49363">
        <ele>1147.449</ele>
        <time>2016-09-13T10:13:08Z</time>
      </trkpt>
      <trkpt lat="44.85879" lon="3.49374">
        <ele>1157.566</ele>
        <time>2016-09-13T10:13:28Z</time>
      </trkpt>
      <trkpt lat="44.85816" lon="3.49301">
        <ele>1153.729</ele>
        <time>2016-09-13T10:13:48Z</time>
      </trkpt>
      <trkpt lat="44.85687" lon="3.49325">
        <ele>1156.421</ele>
        <time>2016-09-13T10:14:08Z</time>
      </trkpt>
      <trkpt lat="44.85654" lon="3.4935">
        <ele>1158.708</ele>
        <time>2016-09-13T10:14:28Z</time>
      </trkpt>
      <trkpt lat="44.85664" lon="3.49367">
        <ele>1161.542</ele>
        <time>2016-09-13T10:14:48Z</time>
      </trkpt>
      <trkpt lat="44.85667" lon="3.49455">
        <ele>1167.299</ele>
        <time>2016-09-13T10:15:08Z</time>
      </trkpt>
      <trkpt lat="44.85648" lon="3.49513">
        <ele>1174.568</ele>
        <time>2016-09-13T10:15:28Z</time>
      </trkpt>
      <trkpt lat="44.85538" lon="3.49513">
        <ele>1177.674</ele>
        <time>2016-09-13T10:15:48Z</time>
      </trkpt>
      <trkpt lat="44.85479" lon="3.49533">
        <ele>1175.971</ele>
        <time>2016-09-13T10:16:08Z</time>
      </trkpt>
      <trkpt lat="44.854" lon="3.49584">
        <ele>1173.16</ele>
        <time>2016-09-13T10:16:28Z</time>
      </trkpt>
      <trkpt lat="44.85235" lon="3.49561">
        <ele>1181.192</ele>
        <time>2016-09-13T10:16:48Z</time>
      </trkpt>
      <trkpt lat="44.85103" lon="3.49601">
        <ele>1179.62</ele>
        <time>2019-03-30T12:45:23Z</time>
      </trkpt>
      <trkpt lat="44.85065" lon="3.49667">
        <ele>1185.749</ele>
        <time>2019-03-30T12:45:43Z</time>
      </trkpt>
      <trkpt lat="44.8499" lon="3.49666">
        <ele>1186.602</ele>
        <time>2016-09-13T10:17:48Z</time>
      </trkpt>
      <trkpt lat="44.84925" lon="3.49743">
        <ele>1197.922</ele>
        <time>2016-09-13T10:18:08Z</time>
      </trkpt>
      <trkpt lat="44.84857" lon="3.49732">
        <ele>1204.308</ele>
        <time>2016-09-13T10:18:28Z</time>
      </trkpt>
      <trkpt lat="44.84806" lon="3.49666">
        <ele>1204.87</ele>
        <time>2016-09-13T10:18:48Z</time>
      </trkpt>
      <trkpt lat="44.84697" lon="3.49745">
        <ele>1207.877</ele>
        <time>2016-09-13T10:19:08Z</time>
      </trkpt>
      <trkpt lat="44.84651" lon="3.49788">
        <ele>1210.126</ele>
        <time>2016-09-13T10:19:28Z</time>
      </trkpt>
      <trkpt lat="44.84508" lon="3.4984">
        <ele>1220.422</ele>
        <time>2016-09-13T10:19:48Z</time>
      </trkpt>
      <trkpt lat="44.84456" lon="3.49859">
        <ele>1230.339</ele>
        <time>2016-09-13T10:20:08Z</time>
      </trkpt>
      <trkpt lat="44.84408" lon="3.49842">
        <ele>1230.498</ele>
        <time>2016-09-13T10:20:28Z</time>
      </trkpt>
      <trkpt lat="44.84342" lon="3.49805">
        <ele>1221.94</ele>
        <time>2016-09-13T10:20:48Z</time>
      </trkpt>
      <trkpt lat="44.84288" lon="3.4982">
        <ele>1232.778</ele>
        <time>2016-09-13T10:21:08Z</time>
      </trkpt>
      <trkpt lat="44.8423" lon="3.49644">
        <ele>1229.656</ele>
        <time>2016-09-13T10:21:28Z</time>
      </trkpt>
      <trkpt lat="44.84149" lon="3.49522">
        <ele>1237.259</ele>
        <time>2016-09-13T10:21:48Z</time>
      </trkpt>
      <trkpt lat="44.8407" lon="3.49522">
        <ele>1249.114</ele>
        <time>2016-09-13T10:22:08Z</time>
      </trkpt>
      <trkpt lat="44.84009" lon="3.49569">
        <ele>1261.108</ele>
        <time>2016-09-13T10:22:28Z</time>
      </trkpt>
      <trkpt lat="44.83896" lon="3.49553">
        <ele>1268.841</ele>
        <time>2019-03-30T12:51:03Z</time>
      </trkpt>
      <trkpt lat="44.8372" lon="3.49579">
        <ele>1293.638</ele>
        <time>2019-03-30T12:51:23Z</time>
      </trkpt>
      <trkpt lat="44.8361" lon="3.49552">
        <ele>1296.717</ele>
        <time>2019-03-30T12:51:43Z</time>
      </trkpt>
      <trkpt lat="44.8352" lon="3.49549">
        <ele>1300.963</ele>
        <time>2019-03-30T12:52:03Z</time>
      </trkpt>
      <trkpt lat="44.83497" lon="3.49769">
        <ele>1324.27</ele>
        <time>2019-03-30T12:52:23Z</time>
      </trkpt>
      <trkpt lat="44.82994" lon="3.49606">
        <ele>1327.299</ele>
        <time>2016-09-13T10:23:48Z</time>
      </trkpt>
      <trkpt lat="44.83019" lon="3.49573">
        <ele>1320.511</ele>
        <time>2016-09-13T10:24:08Z</time>
      </trkpt>
      <trkpt lat="44.8307" lon="3.49537">
        <ele>1318.259</ele>
        <time>2016-09-13T10:24:28Z</time>
      </trkpt>
      <trkpt lat="44.83092" lon="3.49428">
        <ele>1314.285</ele>
        <time>2016-09-13T10:24:48Z</time>
      </trkpt>
      <trkpt lat="44.83019" lon="3.49241">
        <ele>1305.389</ele>
        <time>2019-03-30T12:54:03Z</time>
      </trkpt>
      <trkpt lat="44.82962" lon="3.49142">
        <ele>1296.617</ele>
        <time>2019-03-30T12:54:23Z</time>
      </trkpt>
      <trkpt lat="44.82798" lon="3.49067">
        <ele>1296.608</ele>
        <time>2016-09-13T10:25:48Z</time>
      </trkpt>
      <trkpt lat="44.82708" lon="3.49132">
        <ele>1302.034</ele>
        <time>2019-03-30T12:55:03Z</time>
      </trkpt>
      <trkpt lat="44.82478" lon="3.4902">
        <ele>1299.321</ele>
        <time>2016-09-13T10:26:28Z</time>
      </trkpt>
      <trkpt lat="44.82451" lon="3.48923">
        <ele>1298.86</ele>
        <time>2016-09-13T10:26:48Z</time>
      </trkpt>
      <trkpt lat="44.82437" lon="3.48749">
        <ele>1293.716</ele>
        <time>2016-09-13T10:27:08Z</time>
      </trkpt>
      <trkpt lat="44.82437" lon="3.48749">
        <ele>1293.716</ele>
        <time>2016-09-13T10:27:08Z</time>
      </trkpt>
      <trkpt lat="44.82326" lon="3.48762">
        <ele>1293.333</ele>
        <time>2016-09-13T10:27:28Z</time>
      </trkpt>
      <trkpt lat="44.82311" lon="3.48722">
        <ele>1297.872</ele>
        <time>2016-09-13T10:27:48Z</time>
      </trkpt>
      <trkpt lat="44.82335" lon="3.4849">
        <ele>1313.654</ele>
        <time>2019-03-30T12:57:03Z</time>
      </trkpt>
      <trkpt lat="44.82329" lon="3.48406">
        <ele>1312.612</ele>
        <time>2019-03-30T12:57:23Z</time>
      </trkpt>
      <trkpt lat="44.82281" lon="3.48278">
        <ele>1308.553</ele>
        <time>2019-03-30T12:57:43Z</time>
      </trkpt>
      <trkpt lat="44.82204" lon="3.48204">
        <ele>1305.204</ele>
        <time>2016-09-13T10:28:48Z</time>
      </trkpt>
      <trkpt lat="44.82192" lon="3.48104">
        <ele>1302.214</ele>
        <time>2016-09-13T10:29:08Z</time>
      </trkpt>
      <trkpt lat="44.82233" lon="3.47998">
        <ele>1308.308</ele>
        <time>2016-09-13T10:29:28Z</time>
      </trkpt>
      <trkpt lat="44.82218" lon="3.47863">
        <ele>1311.451</ele>
        <time>2016-09-13T10:29:48Z</time>
      </trkpt>
      <trkpt lat="44.82236" lon="3.47812">
        <ele>1308.618</ele>
        <time>2016-09-13T10:30:08Z</time>
      </trkpt>
      <trkpt lat="44.82285" lon="3.4778">
        <ele>1309.037</ele>
        <time>2016-09-13T10:30:28Z</time>
      </trkpt>
      <trkpt lat="44.82343" lon="3.47644">
        <ele>1310.373</ele>
        <time>2016-09-13T10:30:48Z</time>
      </trkpt>
      <trkpt lat="44.82326" lon="3.47574">
        <ele>1312.17</ele>
        <time>2016-09-13T10:31:08Z</time>
      </trkpt>
      <trkpt lat="44.82329" lon="3.47507">
        <ele>1312.049</ele>
        <time>2016-09-13T10:31:28Z</time>
      </trkpt>
      <trkpt lat="44.82399" lon="3.47413">
        <ele>1311.041</ele>
        <time>2016-09-13T10:31:48Z</time>
      </trkpt>
      <trkpt lat="44.82465" lon="3.47209">
        <ele>1327.969</ele>
        <time>2016-09-13T10:32:08Z</time>
      </trkpt>
      <trkpt lat="44.82536" lon="3.47164">
        <ele>1329.483</ele>
        <time>2016-09-13T10:32:28Z</time>
      </trkpt>
      <trkpt lat="44.82614" lon="3.4702">
        <ele>1328.725</ele>
        <time>2016-09-13T10:32:48Z</time>
      </trkpt>
      <trkpt lat="44.8267" lon="3.46722">
        <ele>1322.517</ele>
        <time>2016-09-13T10:33:08Z</time>
      </trkpt>
      <trkpt lat="44.82842" lon="3.46602">
        <ele>1313.444</ele>
        <time>2016-09-13T10:33:48Z</time>
      </trkpt>
      <trkpt lat="44.82983" lon="3.46701">
        <ele>1309.581</ele>
        <time>2016-09-13T10:34:08Z</time>
      </trkpt>
      <trkpt lat="44.83053" lon="3.46714">
        <ele>1309.65</ele>
        <time>2016-09-13T10:34:28Z</time>
      </trkpt>
      <trkpt lat="44.83097" lon="3.46662">
        <ele>1310.296</ele>
        <time>2016-09-13T10:34:48Z</time>
      </trkpt>
      <trkpt lat="44.83161" lon="3.46394">
        <ele>1312.683</ele>
        <time>2016-09-13T10:35:08Z</time>
      </trkpt>
      <trkpt lat="44.83173" lon="3.46205">
        <ele>1308.192</ele>
        <time>2016-09-13T10:35:28Z</time>
      </trkpt>
      <trkpt lat="44.83114" lon="3.46081">
        <ele>1304.814</ele>
        <time>2016-09-13T10:35:48Z</time>
      </trkpt>
      <trkpt lat="44.83035" lon="3.45692">
        <ele>1292.792</ele>
        <time>2016-09-13T10:36:08Z</time>
      </trkpt>
      <trkpt lat="44.82994" lon="3.45645">
        <ele>1299.589</ele>
        <time>2016-09-13T10:36:28Z</time>
      </trkpt>
      <trkpt lat="44.82829" lon="3.45587">
        <ele>1289.306</ele>
        <time>2016-09-13T10:36:48Z</time>
      </trkpt>
    </trkseg>
  </trk>
</gpx>